Portada
METAR-TAF:

METAR-TAF

Aeropuertos :

Aeropuerto de Saint Anthony

St. Anthony, Terranova y Labrador, Canadá

latitud: 51-24N, longitud: 056-05W, altitud: 28 m

Observación

El informe se hizo hace 30 minutos, a las 05:00 UTC
Viento 16 kt del oeste
Temperatura 0°C
Humedad 74%
Presión 1010 hPa
Visibilidad: 14.5 km
Nubes dispersas a una altura de 3200 ft

METAR: CYAY 130500Z AUTO 27016KT 9SM SCT032 M00/M04 A2982 RMK ICG SLP103

Hora: 02:00 (05:30 UTC)

Pronóstico

El informe se hizo hace 3 horas y 50 minutos, a las 01:40 UTC
Pronóstico válido del 13 a las 02 UTC al 13 a las 14 UTC
Viento 20 kt del noroeste con ráfagas de 30 kt
Visibilidad: 10 km
Cielo cubierto a una altura de 3000 ft
Evolucionando progresivamente
del 13 a las 02 UTC al 13 a las 04 UTC
Viento 15 kt del noroeste con ráfagas de 25 kt

TAF: CYAY 130140Z 1302/1314 31020G30KT P6SM OVC030 BECMG 1302/1304 31015G25KT RMK FCST BASED ON AUTO OBS. NXT FCST BY 130800Z

Observaciones y pronósticos meteorológicos de más de 4000 aeropuertos (mensajes METAR y TAF).

Los puntos amarillos y rojos representan las estaciones disponibles.

Ponga el ratón en el punto deseado para ver el nombre de la estación.

Haga clic para ver las observaciones y los pronósticos meteorológicos.

Para cambiar el mapa : haga clic en los botones verdes con una cruz de color negro para hacer un zoom, en el botón verde con un guión para alejar o en las flechas verdes para mapas adyacentes.


METAR-TAF: